sensor_id;sensor_type;location;lat;lon;timestamp;temperature;humidity
50989;DHT22;37008;52.210;21.112;2024-02-26T00:00:29;2.50;99.90
50989;DHT22;37008;52.210;21.112;2024-02-26T00:02:55;2.50;99.90
50989;DHT22;37008;52.210;21.112;2024-02-26T00:05:21;2.40;99.90
50989;DHT22;37008;52.210;21.112;2024-02-26T00:07:47;2.40;99.90
50989;DHT22;37008;52.210;21.112;2024-02-26T00:10:14;2.40;99.90
50989;DHT22;37008;52.210;21.112;2024-02-26T00:12:40;2.40;99.90
50989;DHT22;37008;52.210;21.112;2024-02-26T00:15:07;2.40;99.90
50989;DHT22;37008;52.210;21.112;2024-02-26T00:17:33;2.30;99.90
50989;DHT22;37008;52.210;21.112;2024-02-26T00:19:59;2.30;99.90
50989;DHT22;37008;52.210;21.112;2024-02-26T00:22:26;2.30;99.90
50989;DHT22;37008;52.210;21.112;2024-02-26T00:24:51;2.20;99.90
50989;DHT22;37008;52.210;21.112;2024-02-26T00:27:17;2.30;99.90
50989;DHT22;37008;52.210;21.112;2024-02-26T00:29:44;2.30;99.90
50989;DHT22;37008;52.210;21.112;2024-02-26T00:32:09;2.30;99.90
50989;DHT22;37008;52.210;21.112;2024-02-26T00:34:35;2.40;99.90
50989;DHT22;37008;52.210;21.112;2024-02-26T00:37:01;2.50;99.90
50989;DHT22;37008;52.210;21.112;2024-02-26T00:39:27;2.50;99.90
50989;DHT22;37008;52.210;21.112;2024-02-26T00:41:53;2.50;99.90
50989;DHT22;37008;52.210;21.112;2024-02-26T00:44:18;2.50;99.90
50989;DHT22;37008;52.210;21.112;2024-02-26T00:46:44;2.50;99.90
50989;DHT22;37008;52.210;21.112;2024-02-26T00:49:09;2.60;99.90
50989;DHT22;37008;52.210;21.112;2024-02-26T00:51:35;2.60;99.90
50989;DHT22;37008;52.210;21.112;2024-02-26T00:54:01;2.70;99.90
50989;DHT22;37008;52.210;21.112;2024-02-26T00:56:27;2.70;99.90
50989;DHT22;37008;52.210;21.112;2024-02-26T00:58:52;2.70;99.90
50989;DHT22;37008;52.210;21.112;2024-02-26T01:01:18;2.70;99.90
50989;DHT22;37008;52.210;21.112;2024-02-26T01:03:44;2.60;99.90
50989;DHT22;37008;52.210;21.112;2024-02-26T01:06:09;2.60;99.90
50989;DHT22;37008;52.210;21.112;2024-02-26T01:08:35;2.50;99.90
50989;DHT22;37008;52.210;21.112;2024-02-26T01:11:03;2.50;99.90
50989;DHT22;37008;52.210;21.112;2024-02-26T01:13:28;2.50;99.90
50989;DHT22;37008;52.210;21.112;2024-02-26T01:15:54;2.50;99.90
50989;DHT22;37008;52.210;21.112;2024-02-26T01:18:20;2.50;99.90
50989;DHT22;37008;52.210;21.112;2024-02-26T01:20:46;2.50;99.90
50989;DHT22;37008;52.210;21.112;2024-02-26T01:23:12;2.50;99.90
50989;DHT22;37008;52.210;21.112;2024-02-26T01:25:38;2.50;99.90
50989;DHT22;37008;52.210;21.112;2024-02-26T01:28:05;2.40;99.90
50989;DHT22;37008;52.210;21.112;2024-02-26T01:30:31;2.30;99.90
50989;DHT22;37008;52.210;21.112;2024-02-26T01:32:56;2.30;99.90
50989;DHT22;37008;52.210;21.112;2024-02-26T01:35:22;2.20;99.90
50989;DHT22;37008;52.210;21.112;2024-02-26T01:37:48;2.20;99.90
50989;DHT22;37008;52.210;21.112;2024-02-26T01:40:14;2.10;99.90
50989;DHT22;37008;52.210;21.112;2024-02-26T01:42:44;2.10;99.90
50989;DHT22;37008;52.210;21.112;2024-02-26T01:45:17;2.00;99.90
50989;DHT22;37008;52.210;21.112;2024-02-26T01:47:52;1.90;99.90
50989;DHT22;37008;52.210;21.112;2024-02-26T01:50:19;1.90;99.90
50989;DHT22;37008;52.210;21.112;2024-02-26T01:52:46;1.90;99.90
50989;DHT22;37008;52.210;21.112;2024-02-26T01:55:13;1.90;99.90
50989;DHT22;37008;52.210;21.112;2024-02-26T01:57:44;1.80;99.90
50989;DHT22;37008;52.210;21.112;2024-02-26T02:00:11;1.80;99.90
50989;DHT22;37008;52.210;21.112;2024-02-26T02:02:37;1.70;99.90
50989;DHT22;37008;52.210;21.112;2024-02-26T02:05:05;1.60;99.90
50989;DHT22;37008;52.210;21.112;2024-02-26T02:07:32;1.60;99.90
50989;DHT22;37008;52.210;21.112;2024-02-26T02:09:57;1.60;99.90
50989;DHT22;37008;52.210;21.112;2024-02-26T02:12:23;1.50;99.90
50989;DHT22;37008;52.210;21.112;2024-02-26T02:14:49;1.40;99.90
50989;DHT22;37008;52.210;21.112;2024-02-26T02:17:15;1.40;99.90
50989;DHT22;37008;52.210;21.112;2024-02-26T02:19:41;1.40;99.90
50989;DHT22;37008;52.210;21.112;2024-02-26T02:22:06;1.40;99.90
50989;DHT22;37008;52.210;21.112;2024-02-26T02:24:32;1.30;99.90
50989;DHT22;37008;52.210;21.112;2024-02-26T02:26:58;1.20;99.90
50989;DHT22;37008;52.210;21.112;2024-02-26T02:29:24;1.20;99.90
50989;DHT22;37008;52.210;21.112;2024-02-26T02:31:50;1.10;99.90
50989;DHT22;37008;52.210;21.112;2024-02-26T02:34:15;1.10;99.90
50989;DHT22;37008;52.210;21.112;2024-02-26T02:36:54;1.10;99.90
50989;DHT22;37008;52.210;21.112;2024-02-26T02:39:21;1.10;99.90
50989;DHT22;37008;52.210;21.112;2024-02-26T02:41:46;1.00;99.90
50989;DHT22;37008;52.210;21.112;2024-02-26T02:44:12;1.00;99.90
50989;DHT22;37008;52.210;21.112;2024-02-26T02:46:38;1.00;99.90
50989;DHT22;37008;52.210;21.112;2024-02-26T02:49:07;1.10;99.90
50989;DHT22;37008;52.210;21.112;2024-02-26T02:51:33;1.00;99.90
50989;DHT22;37008;52.210;21.112;2024-02-26T02:53:58;1.10;99.90
50989;DHT22;37008;52.210;21.112;2024-02-26T02:56:24;1.10;99.90
50989;DHT22;37008;52.210;21.112;2024-02-26T02:58:49;1.20;99.90
50989;DHT22;37008;52.210;21.112;2024-02-26T03:01:15;1.20;99.90
50989;DHT22;37008;52.210;21.112;2024-02-26T03:03:41;1.20;99.90
50989;DHT22;37008;52.210;21.112;2024-02-26T03:06:06;1.20;99.90
50989;DHT22;37008;52.210;21.112;2024-02-26T03:08:32;1.20;99.90
50989;DHT22;37008;52.210;21.112;2024-02-26T03:10:59;1.20;99.90
50989;DHT22;37008;52.210;21.112;2024-02-26T03:13:25;1.20;99.90
50989;DHT22;37008;52.210;21.112;2024-02-26T03:15:50;1.20;99.90
50989;DHT22;37008;52.210;21.112;2024-02-26T03:18:16;1.30;99.90
50989;DHT22;37008;52.210;21.112;2024-02-26T03:20:42;1.30;99.90
50989;DHT22;37008;52.210;21.112;2024-02-26T03:23:07;1.40;99.90
50989;DHT22;37008;52.210;21.112;2024-02-26T03:25:37;1.40;99.90
50989;DHT22;37008;52.210;21.112;2024-02-26T03:28:03;1.30;99.90
50989;DHT22;37008;52.210;21.112;2024-02-26T03:30:28;1.30;99.90
50989;DHT22;37008;52.210;21.112;2024-02-26T03:32:54;1.40;99.90
50989;DHT22;37008;52.210;21.112;2024-02-26T03:35:19;1.30;99.90
50989;DHT22;37008;52.210;21.112;2024-02-26T03:37:46;1.40;99.90
50989;DHT22;37008;52.210;21.112;2024-02-26T03:40:13;1.40;99.90
50989;DHT22;37008;52.210;21.112;2024-02-26T03:42:40;1.50;99.90
50989;DHT22;37008;52.210;21.112;2024-02-26T03:45:06;1.50;99.90
50989;DHT22;37008;52.210;21.112;2024-02-26T03:47:31;1.40;99.90
50989;DHT22;37008;52.210;21.112;2024-02-26T03:49:57;1.40;99.90
50989;DHT22;37008;52.210;21.112;2024-02-26T03:52:24;1.40;99.90
50989;DHT22;37008;52.210;21.112;2024-02-26T03:54:50;1.30;99.90
50989;DHT22;37008;52.210;21.112;2024-02-26T03:57:16;1.30;99.90
50989;DHT22;37008;52.210;21.112;2024-02-26T03:59:41;1.30;99.90
50989;DHT22;37008;52.210;21.112;2024-02-26T04:02:07;1.20;99.90
50989;DHT22;37008;52.210;21.112;2024-02-26T04:04:35;1.10;99.90
50989;DHT22;37008;52.210;21.112;2024-02-26T04:07:01;1.10;99.90
50989;DHT22;37008;52.210;21.112;2024-02-26T04:09:26;1.00;99.90
50989;DHT22;37008;52.210;21.112;2024-02-26T04:11:52;1.00;99.90
50989;DHT22;37008;52.210;21.112;2024-02-26T04:14:18;1.00;99.90
50989;DHT22;37008;52.210;21.112;2024-02-26T04:16:43;1.10;99.90
50989;DHT22;37008;52.210;21.112;2024-02-26T04:19:09;1.10;99.90
50989;DHT22;37008;52.210;21.112;2024-02-26T04:21:35;1.10;99.90
50989;DHT22;37008;52.210;21.112;2024-02-26T04:24:00;1.10;99.90
50989;DHT22;37008;52.210;21.112;2024-02-26T04:26:28;1.10;99.90
50989;DHT22;37008;52.210;21.112;2024-02-26T04:28:54;1.10;99.90
50989;DHT22;37008;52.210;21.112;2024-02-26T04:31:20;1.00;99.90
50989;DHT22;37008;52.210;21.112;2024-02-26T04:33:45;1.10;99.90
50989;DHT22;37008;52.210;21.112;2024-02-26T04:36:14;1.10;99.90
50989;DHT22;37008;52.210;21.112;2024-02-26T04:38:42;1.00;99.90
50989;DHT22;37008;52.210;21.112;2024-02-26T04:41:07;1.10;99.90
50989;DHT22;37008;52.210;21.112;2024-02-26T04:43:33;1.10;99.90
50989;DHT22;37008;52.210;21.112;2024-02-26T04:45:58;1.00;99.90
50989;DHT22;37008;52.210;21.112;2024-02-26T04:48:24;1.10;99.90
50989;DHT22;37008;52.210;21.112;2024-02-26T04:50:50;1.00;99.90
50989;DHT22;37008;52.210;21.112;2024-02-26T04:53:15;1.00;99.90
50989;DHT22;37008;52.210;21.112;2024-02-26T04:55:41;1.00;99.90
50989;DHT22;37008;52.210;21.112;2024-02-26T04:58:07;0.90;99.90
50989;DHT22;37008;52.210;21.112;2024-02-26T05:00:32;0.90;99.90
50989;DHT22;37008;52.210;21.112;2024-02-26T05:02:58;1.00;99.90
50989;DHT22;37008;52.210;21.112;2024-02-26T05:05:23;0.90;99.90
50989;DHT22;37008;52.210;21.112;2024-02-26T05:07:49;0.90;99.90
50989;DHT22;37008;52.210;21.112;2024-02-26T05:10:15;1.00;99.90
50989;DHT22;37008;52.210;21.112;2024-02-26T05:12:40;1.00;99.90
50989;DHT22;37008;52.210;21.112;2024-02-26T05:15:08;1.10;99.90
50989;DHT22;37008;52.210;21.112;2024-02-26T05:17:34;1.20;99.90
50989;DHT22;37008;52.210;21.112;2024-02-26T05:20:00;1.20;99.90
50989;DHT22;37008;52.210;21.112;2024-02-26T05:22:25;1.30;99.90
50989;DHT22;37008;52.210;21.112;2024-02-26T05:24:51;1.30;99.90
50989;DHT22;37008;52.210;21.112;2024-02-26T05:27:17;1.40;99.90
50989;DHT22;37008;52.210;21.112;2024-02-26T05:29:43;1.40;99.90
50989;DHT22;37008;52.210;21.112;2024-02-26T05:32:09;1.40;99.90
50989;DHT22;37008;52.210;21.112;2024-02-26T05:34:34;1.50;99.90
50989;DHT22;37008;52.210;21.112;2024-02-26T05:37:00;1.40;99.90
50989;DHT22;37008;52.210;21.112;2024-02-26T05:39:25;1.40;99.90
50989;DHT22;37008;52.210;21.112;2024-02-26T05:41:51;1.50;99.90
50989;DHT22;37008;52.210;21.112;2024-02-26T05:44:17;1.50;99.90
50989;DHT22;37008;52.210;21.112;2024-02-26T05:46:43;1.60;99.90
50989;DHT22;37008;52.210;21.112;2024-02-26T05:49:08;1.60;99.90
50989;DHT22;37008;52.210;21.112;2024-02-26T05:51:34;1.70;99.90
50989;DHT22;37008;52.210;21.112;2024-02-26T05:54:00;1.70;99.90
50989;DHT22;37008;52.210;21.112;2024-02-26T05:56:26;1.70;99.90
50989;DHT22;37008;52.210;21.112;2024-02-26T05:58:51;1.80;99.90
50989;DHT22;37008;52.210;21.112;2024-02-26T06:01:18;1.70;99.90
50989;DHT22;37008;52.210;21.112;2024-02-26T06:03:44;1.70;99.90
50989;DHT22;37008;52.210;21.112;2024-02-26T06:06:11;1.80;99.90
50989;DHT22;37008;52.210;21.112;2024-02-26T06:08:36;1.80;99.90
50989;DHT22;37008;52.210;21.112;2024-02-26T06:11:06;1.90;99.90
50989;DHT22;37008;52.210;21.112;2024-02-26T06:13:32;1.90;99.90
50989;DHT22;37008;52.210;21.112;2024-02-26T06:16:01;2.00;99.90
50989;DHT22;37008;52.210;21.112;2024-02-26T06:18:27;2.00;99.90
50989;DHT22;37008;52.210;21.112;2024-02-26T06:20:53;2.10;99.90
50989;DHT22;37008;52.210;21.112;2024-02-26T06:23:18;2.30;99.90
50989;DHT22;37008;52.210;21.112;2024-02-26T06:25:44;2.30;99.90
50989;DHT22;37008;52.210;21.112;2024-02-26T06:28:10;2.40;99.90
50989;DHT22;37008;52.210;21.112;2024-02-26T06:30:35;2.40;99.90
50989;DHT22;37008;52.210;21.112;2024-02-26T06:33:01;2.60;99.90
50989;DHT22;37008;52.210;21.112;2024-02-26T06:35:27;2.60;99.90
50989;DHT22;37008;52.210;21.112;2024-02-26T06:37:52;2.60;99.90
50989;DHT22;37008;52.210;21.112;2024-02-26T06:40:21;2.70;99.90
50989;DHT22;37008;52.210;21.112;2024-02-26T06:42:47;2.80;99.90
50989;DHT22;37008;52.210;21.112;2024-02-26T06:45:13;2.90;99.90
50989;DHT22;37008;52.210;21.112;2024-02-26T06:47:38;3.00;99.90
50989;DHT22;37008;52.210;21.112;2024-02-26T06:50:04;3.10;99.90
50989;DHT22;37008;52.210;21.112;2024-02-26T06:52:30;3.20;99.90
50989;DHT22;37008;52.210;21.112;2024-02-26T06:54:56;3.30;99.90
50989;DHT22;37008;52.210;21.112;2024-02-26T06:57:22;3.40;99.90
50989;DHT22;37008;52.210;21.112;2024-02-26T06:59:47;3.40;99.90
50989;DHT22;37008;52.210;21.112;2024-02-26T07:02:13;3.40;99.90
50989;DHT22;37008;52.210;21.112;2024-02-26T07:04:39;3.40;99.90
50989;DHT22;37008;52.210;21.112;2024-02-26T07:07:06;3.50;99.90
50989;DHT22;37008;52.210;21.112;2024-02-26T07:09:32;3.50;99.90
50989;DHT22;37008;52.210;21.112;2024-02-26T07:11:58;3.50;99.90
50989;DHT22;37008;52.210;21.112;2024-02-26T07:14:23;3.70;99.90
50989;DHT22;37008;52.210;21.112;2024-02-26T07:16:50;3.70;99.90
50989;DHT22;37008;52.210;21.112;2024-02-26T07:19:16;3.80;99.90
50989;DHT22;37008;52.210;21.112;2024-02-26T07:21:41;3.90;99.90
50989;DHT22;37008;52.210;21.112;2024-02-26T07:24:07;4.00;99.90
50989;DHT22;37008;52.210;21.112;2024-02-26T07:26:33;4.10;99.90
50989;DHT22;37008;52.210;21.112;2024-02-26T07:28:59;4.20;99.90
50989;DHT22;37008;52.210;21.112;2024-02-26T07:31:25;4.30;99.90
50989;DHT22;37008;52.210;21.112;2024-02-26T07:33:51;4.40;99.90
50989;DHT22;37008;52.210;21.112;2024-02-26T07:36:17;4.50;99.90
50989;DHT22;37008;52.210;21.112;2024-02-26T07:38:43;4.70;99.90
50989;DHT22;37008;52.210;21.112;2024-02-26T07:41:09;4.90;99.90
50989;DHT22;37008;52.210;21.112;2024-02-26T07:43:34;5.00;99.90
50989;DHT22;37008;52.210;21.112;2024-02-26T07:46:00;5.10;99.90
50989;DHT22;37008;52.210;21.112;2024-02-26T07:48:26;5.30;99.90
50989;DHT22;37008;52.210;21.112;2024-02-26T07:50:51;5.40;99.90
50989;DHT22;37008;52.210;21.112;2024-02-26T07:53:17;5.50;99.90
50989;DHT22;37008;52.210;21.112;2024-02-26T07:55:43;5.70;99.90
50989;DHT22;37008;52.210;21.112;2024-02-26T07:58:08;5.90;99.90
50989;DHT22;37008;52.210;21.112;2024-02-26T08:00:34;6.00;99.90
50989;DHT22;37008;52.210;21.112;2024-02-26T08:03:00;6.20;99.90
50989;DHT22;37008;52.210;21.112;2024-02-26T08:05:27;6.20;99.90
50989;DHT22;37008;52.210;21.112;2024-02-26T08:07:52;6.30;99.90
50989;DHT22;37008;52.210;21.112;2024-02-26T08:10:20;6.40;99.90
50989;DHT22;37008;52.210;21.112;2024-02-26T08:12:45;6.50;99.90
50989;DHT22;37008;52.210;21.112;2024-02-26T08:15:11;6.60;99.90
50989;DHT22;37008;52.210;21.112;2024-02-26T08:17:37;6.70;99.90
50989;DHT22;37008;52.210;21.112;2024-02-26T08:20:04;6.80;99.90
50989;DHT22;37008;52.210;21.112;2024-02-26T08:22:29;6.90;99.90
50989;DHT22;37008;52.210;21.112;2024-02-26T08:24:55;7.00;99.90
50989;DHT22;37008;52.210;21.112;2024-02-26T08:27:20;7.10;99.90
50989;DHT22;37008;52.210;21.112;2024-02-26T08:29:46;7.20;99.90
50989;DHT22;37008;52.210;21.112;2024-02-26T08:32:12;7.30;99.90
50989;DHT22;37008;52.210;21.112;2024-02-26T08:34:37;7.40;99.90
50989;DHT22;37008;52.210;21.112;2024-02-26T08:37:03;7.50;99.90
50989;DHT22;37008;52.210;21.112;2024-02-26T08:39:29;7.60;99.90
50989;DHT22;37008;52.210;21.112;2024-02-26T08:41:54;7.80;99.90
50989;DHT22;37008;52.210;21.112;2024-02-26T08:44:20;7.80;99.90
50989;DHT22;37008;52.210;21.112;2024-02-26T08:46:45;7.90;99.90
50989;DHT22;37008;52.210;21.112;2024-02-26T08:49:11;8.00;99.90
50989;DHT22;37008;52.210;21.112;2024-02-26T08:51:46;8.10;99.90
50989;DHT22;37008;52.210;21.112;2024-02-26T08:54:11;8.20;99.90
50989;DHT22;37008;52.210;21.112;2024-02-26T08:56:37;8.30;99.90
50989;DHT22;37008;52.210;21.112;2024-02-26T08:59:03;8.40;99.90
50989;DHT22;37008;52.210;21.112;2024-02-26T09:01:30;8.50;99.90
50989;DHT22;37008;52.210;21.112;2024-02-26T09:03:56;8.60;99.90
50989;DHT22;37008;52.210;21.112;2024-02-26T09:06:22;8.70;99.90
50989;DHT22;37008;52.210;21.112;2024-02-26T09:08:47;8.90;99.90
50989;DHT22;37008;52.210;21.112;2024-02-26T09:11:13;9.10;99.90
50989;DHT22;37008;52.210;21.112;2024-02-26T09:13:39;9.20;99.90
50989;DHT22;37008;52.210;21.112;2024-02-26T09:16:05;9.40;99.90
50989;DHT22;37008;52.210;21.112;2024-02-26T09:18:31;9.60;99.90
50989;DHT22;37008;52.210;21.112;2024-02-26T09:20:57;9.80;99.90
50989;DHT22;37008;52.210;21.112;2024-02-26T09:23:23;10.00;99.90
50989;DHT22;37008;52.210;21.112;2024-02-26T09:25:48;10.20;99.90
50989;DHT22;37008;52.210;21.112;2024-02-26T09:28:14;10.40;99.90
50989;DHT22;37008;52.210;21.112;2024-02-26T09:30:45;10.50;99.90
50989;DHT22;37008;52.210;21.112;2024-02-26T09:33:11;10.60;99.90
50989;DHT22;37008;52.210;21.112;2024-02-26T09:35:37;10.70;99.90
50989;DHT22;37008;52.210;21.112;2024-02-26T09:38:02;10.80;99.90
50989;DHT22;37008;52.210;21.112;2024-02-26T09:40:28;10.80;99.90
50989;DHT22;37008;52.210;21.112;2024-02-26T09:43:00;10.90;99.90
50989;DHT22;37008;52.210;21.112;2024-02-26T09:45:28;10.90;99.90
50989;DHT22;37008;52.210;21.112;2024-02-26T09:47:55;11.00;99.90
50989;DHT22;37008;52.210;21.112;2024-02-26T09:50:22;11.00;99.90
50989;DHT22;37008;52.210;21.112;2024-02-26T09:52:49;11.00;99.90
50989;DHT22;37008;52.210;21.112;2024-02-26T09:55:15;11.00;99.90
50989;DHT22;37008;52.210;21.112;2024-02-26T09:57:46;11.00;99.90
50989;DHT22;37008;52.210;21.112;2024-02-26T10:00:18;11.00;99.90
50989;DHT22;37008;52.210;21.112;2024-02-26T10:02:46;11.00;99.90
50989;DHT22;37008;52.210;21.112;2024-02-26T10:05:16;11.00;99.90
50989;DHT22;37008;52.210;21.112;2024-02-26T10:07:43;10.90;99.90
50989;DHT22;37008;52.210;21.112;2024-02-26T10:10:09;10.90;99.90
50989;DHT22;37008;52.210;21.112;2024-02-26T10:12:35;10.90;99.90
50989;DHT22;37008;52.210;21.112;2024-02-26T10:15:01;10.80;99.90
50989;DHT22;37008;52.210;21.112;2024-02-26T10:17:26;10.90;99.90
50989;DHT22;37008;52.210;21.112;2024-02-26T10:19:52;10.90;99.90
50989;DHT22;37008;52.210;21.112;2024-02-26T10:22:22;10.90;99.90
50989;DHT22;37008;52.210;21.112;2024-02-26T10:24:48;11.00;99.90
50989;DHT22;37008;52.210;21.112;2024-02-26T10:27:15;11.00;99.90
50989;DHT22;37008;52.210;21.112;2024-02-26T10:29:40;11.10;99.90
50989;DHT22;37008;52.210;21.112;2024-02-26T10:32:08;11.10;99.90
50989;DHT22;37008;52.210;21.112;2024-02-26T10:34:35;11.20;99.90
50989;DHT22;37008;52.210;21.112;2024-02-26T10:37:04;11.20;99.90
50989;DHT22;37008;52.210;21.112;2024-02-26T10:39:30;11.20;99.90
50989;DHT22;37008;52.210;21.112;2024-02-26T10:41:55;11.20;99.90
50989;DHT22;37008;52.210;21.112;2024-02-26T10:44:21;11.20;99.90
50989;DHT22;37008;52.210;21.112;2024-02-26T10:46:47;11.20;99.90
50989;DHT22;37008;52.210;21.112;2024-02-26T10:49:17;11.10;99.90
50989;DHT22;37008;52.210;21.112;2024-02-26T10:51:45;11.20;99.90
50989;DHT22;37008;52.210;21.112;2024-02-26T10:54:16;11.30;99.90
50989;DHT22;37008;52.210;21.112;2024-02-26T10:56:42;11.50;99.90
50989;DHT22;37008;52.210;21.112;2024-02-26T10:59:12;11.60;99.90
50989;DHT22;37008;52.210;21.112;2024-02-26T11:01:38;11.80;99.90
50989;DHT22;37008;52.210;21.112;2024-02-26T11:04:06;12.00;99.90
50989;DHT22;37008;52.210;21.112;2024-02-26T11:06:34;12.20;99.90
50989;DHT22;37008;52.210;21.112;2024-02-26T11:09:01;12.30;99.90
50989;DHT22;37008;52.210;21.112;2024-02-26T11:11:28;12.30;99.90
50989;DHT22;37008;52.210;21.112;2024-02-26T11:13:56;12.30;99.90
50989;DHT22;37008;52.210;21.112;2024-02-26T11:16:23;12.20;99.90
50989;DHT22;37008;52.210;21.112;2024-02-26T11:18:49;12.30;99.90
50989;DHT22;37008;52.210;21.112;2024-02-26T11:21:19;12.40;99.90
50989;DHT22;37008;52.210;21.112;2024-02-26T11:23:47;12.40;99.90
50989;DHT22;37008;52.210;21.112;2024-02-26T11:26:15;12.40;99.90
50989;DHT22;37008;52.210;21.112;2024-02-26T11:28:42;12.40;99.90
50989;DHT22;37008;52.210;21.112;2024-02-26T11:31:08;12.50;99.90
50989;DHT22;37008;52.210;21.112;2024-02-26T11:33:35;12.50;99.90
50989;DHT22;37008;52.210;21.112;2024-02-26T11:36:02;12.70;99.90
50989;DHT22;37008;52.210;21.112;2024-02-26T11:38:33;12.80;99.90
50989;DHT22;37008;52.210;21.112;2024-02-26T11:40:59;12.90;99.90
50989;DHT22;37008;52.210;21.112;2024-02-26T11:44:03;13.00;99.90
50989;DHT22;37008;52.210;21.112;2024-02-26T11:46:39;13.10;99.90
50989;DHT22;37008;52.210;21.112;2024-02-26T11:51:54;13.10;99.90
50989;DHT22;37008;52.210;21.112;2024-02-26T11:54:52;13.20;99.90
50989;DHT22;37008;52.210;21.112;2024-02-26T11:59:53;13.10;99.90
50989;DHT22;37008;52.210;21.112;2024-02-26T12:02:47;13.20;99.90
50989;DHT22;37008;52.210;21.112;2024-02-26T12:05:34;13.20;99.90
50989;DHT22;37008;52.210;21.112;2024-02-26T12:08:07;13.30;99.90
50989;DHT22;37008;52.210;21.112;2024-02-26T12:10:35;13.30;99.90
50989;DHT22;37008;52.210;21.112;2024-02-26T12:13:08;13.30;99.90
50989;DHT22;37008;52.210;21.112;2024-02-26T12:15:38;13.20;99.90
50989;DHT22;37008;52.210;21.112;2024-02-26T12:18:06;13.20;99.90
50989;DHT22;37008;52.210;21.112;2024-02-26T12:20:33;13.20;99.90
50989;DHT22;37008;52.210;21.112;2024-02-26T12:22:59;13.20;99.90
50989;DHT22;37008;52.210;21.112;2024-02-26T12:25:26;13.20;99.90
50989;DHT22;37008;52.210;21.112;2024-02-26T12:27:53;13.20;99.90
50989;DHT22;37008;52.210;21.112;2024-02-26T12:30:19;13.10;99.90
50989;DHT22;37008;52.210;21.112;2024-02-26T12:32:46;13.10;99.90
50989;DHT22;37008;52.210;21.112;2024-02-26T12:35:14;13.10;99.90
50989;DHT22;37008;52.210;21.112;2024-02-26T12:37:40;13.10;99.90
50989;DHT22;37008;52.210;21.112;2024-02-26T12:40:08;13.10;99.90
50989;DHT22;37008;52.210;21.112;2024-02-26T12:42:35;13.00;99.90
50989;DHT22;37008;52.210;21.112;2024-02-26T12:45:09;13.00;99.90
50989;DHT22;37008;52.210;21.112;2024-02-26T12:47:44;13.10;99.90
50989;DHT22;37008;52.210;21.112;2024-02-26T12:50:19;13.10;99.90
50989;DHT22;37008;52.210;21.112;2024-02-26T12:52:46;13.10;99.90
50989;DHT22;37008;52.210;21.112;2024-02-26T12:55:18;13.10;99.90
50989;DHT22;37008;52.210;21.112;2024-02-26T12:57:45;13.10;99.90
50989;DHT22;37008;52.210;21.112;2024-02-26T13:00:17;13.10;99.90
50989;DHT22;37008;52.210;21.112;2024-02-26T13:02:44;13.10;99.90
50989;DHT22;37008;52.210;21.112;2024-02-26T13:05:11;13.10;99.90
50989;DHT22;37008;52.210;21.112;2024-02-26T13:07:44;13.00;99.90
50989;DHT22;37008;52.210;21.112;2024-02-26T13:10:10;13.00;99.90
50989;DHT22;37008;52.210;21.112;2024-02-26T13:12:46;13.00;99.90
50989;DHT22;37008;52.210;21.112;2024-02-26T13:15:19;13.00;99.90
50989;DHT22;37008;52.210;21.112;2024-02-26T13:17:45;13.00;99.90
50989;DHT22;37008;52.210;21.112;2024-02-26T13:20:12;13.00;99.90
50989;DHT22;37008;52.210;21.112;2024-02-26T13:22:39;13.00;99.90
50989;DHT22;37008;52.210;21.112;2024-02-26T13:25:05;13.00;99.90
50989;DHT22;37008;52.210;21.112;2024-02-26T13:27:33;13.00;99.90
50989;DHT22;37008;52.210;21.112;2024-02-26T13:32:32;13.10;99.90
50989;DHT22;37008;52.210;21.112;2024-02-26T13:35:12;13.10;99.90
50989;DHT22;37008;52.210;21.112;2024-02-26T13:37:38;13.10;99.60
50989;DHT22;37008;52.210;21.112;2024-02-26T13:40:09;13.10;99.60
50989;DHT22;37008;52.210;21.112;2024-02-26T13:42:36;13.10;99.70
50989;DHT22;37008;52.210;21.112;2024-02-26T13:45:03;13.20;99.90
50989;DHT22;37008;52.210;21.112;2024-02-26T13:47:32;13.20;99.80
50989;DHT22;37008;52.210;21.112;2024-02-26T13:49:58;13.20;99.60
50989;DHT22;37008;52.210;21.112;2024-02-26T13:52:23;13.20;99.40
50989;DHT22;37008;52.210;21.112;2024-02-26T13:54:49;13.20;99.30
50989;DHT22;37008;52.210;21.112;2024-02-26T13:57:14;13.20;99.40
50989;DHT22;37008;52.210;21.112;2024-02-26T13:59:40;13.20;99.50
50989;DHT22;37008;52.210;21.112;2024-02-26T14:02:09;13.20;99.40
50989;DHT22;37008;52.210;21.112;2024-02-26T14:04:34;13.30;99.40
50989;DHT22;37008;52.210;21.112;2024-02-26T14:07:01;13.30;99.50
50989;DHT22;37008;52.210;21.112;2024-02-26T14:09:27;13.30;99.50
50989;DHT22;37008;52.210;21.112;2024-02-26T14:11:52;13.40;99.10
50989;DHT22;37008;52.210;21.112;2024-02-26T14:14:18;13.40;98.50
50989;DHT22;37008;52.210;21.112;2024-02-26T14:16:44;13.50;98.00
50989;DHT22;37008;52.210;21.112;2024-02-26T14:19:09;13.40;97.50
50989;DHT22;37008;52.210;21.112;2024-02-26T14:21:35;13.40;97.50
50989;DHT22;37008;52.210;21.112;2024-02-26T14:24:01;13.30;97.30
50989;DHT22;37008;52.210;21.112;2024-02-26T14:26:26;13.30;97.00
50989;DHT22;37008;52.210;21.112;2024-02-26T14:28:52;13.20;97.00
50989;DHT22;37008;52.210;21.112;2024-02-26T14:31:18;13.10;96.90
50989;DHT22;37008;52.210;21.112;2024-02-26T14:33:43;13.10;97.20
50989;DHT22;37008;52.210;21.112;2024-02-26T14:36:10;13.10;97.40
50989;DHT22;37008;52.210;21.112;2024-02-26T14:38:36;13.00;97.60
50989;DHT22;37008;52.210;21.112;2024-02-26T14:41:02;13.00;97.80
50989;DHT22;37008;52.210;21.112;2024-02-26T14:43:29;13.00;98.10
50989;DHT22;37008;52.210;21.112;2024-02-26T14:45:54;13.00;98.40
50989;DHT22;37008;52.210;21.112;2024-02-26T14:48:20;13.00;98.70
50989;DHT22;37008;52.210;21.112;2024-02-26T14:50:45;13.00;99.00
50989;DHT22;37008;52.210;21.112;2024-02-26T14:53:11;13.00;99.40
50989;DHT22;37008;52.210;21.112;2024-02-26T14:55:37;12.90;99.60
50989;DHT22;37008;52.210;21.112;2024-02-26T14:58:03;12.90;99.80
50989;DHT22;37008;52.210;21.112;2024-02-26T15:00:29;12.90;99.90
50989;DHT22;37008;52.210;21.112;2024-02-26T15:02:54;12.90;99.90
50989;DHT22;37008;52.210;21.112;2024-02-26T15:05:20;12.80;99.90
50989;DHT22;37008;52.210;21.112;2024-02-26T15:07:46;12.80;99.90
50989;DHT22;37008;52.210;21.112;2024-02-26T15:10:12;12.70;99.90
50989;DHT22;37008;52.210;21.112;2024-02-26T15:12:38;12.70;99.90
50989;DHT22;37008;52.210;21.112;2024-02-26T15:15:04;12.70;99.90
50989;DHT22;37008;52.210;21.112;2024-02-26T15:17:29;12.60;99.90
50989;DHT22;37008;52.210;21.112;2024-02-26T15:19:58;12.50;99.90
50989;DHT22;37008;52.210;21.112;2024-02-26T15:22:25;12.40;99.90
50989;DHT22;37008;52.210;21.112;2024-02-26T15:24:51;12.30;99.90
50989;DHT22;37008;52.210;21.112;2024-02-26T15:27:17;12.20;99.90
50989;DHT22;37008;52.210;21.112;2024-02-26T15:29:43;12.20;99.90